Time;durP1;ratioP1;P1;durP2;ratioP2;P2;SDS_P1;SDS_P2;PMS_P1;PMS_P2;Temp;Humidity;BMP_temperature;BMP_pressure;BME280_temperature;BME280_humidity;BME280_pressure;Samples;Min_cycle;Max_cycle;Signal;HPM_P1;HPM_P2
2022/05/30 00:00:49;;;;;;;3.13;3.03;;;;;;;;;;5233333;28;20051;-84
2022/05/30 00:03:20;;;;;;;4.30;4.00;;;;;;;;;;5234104;28;20025;-84
2022/05/30 00:05:50;;;;;;;6.55;4.10;;;;;;;;;;5232450;28;20055;-86
2022/05/30 00:08:20;;;;;;;4.80;3.83;;;;;;;;;;5239598;28;20025;-82
2022/05/30 00:10:51;;;;;;;5.75;4.20;;;;;;;;;;5225277;28;20024;-83
2022/05/30 00:13:21;;;;;;;6.13;4.97;;;;;;;;;;5242385;28;20027;-82
2022/05/30 00:15:51;;;;;;;4.40;4.20;;;;;;;;;;5242246;28;20025;-82
2022/05/30 00:18:22;;;;;;;9.02;4.85;;;;;;;;;;5242874;28;20329;-83
2022/05/30 00:20:52;;;;;;;3.95;3.70;;;;;;;;;;5242457;28;20040;-83
2022/05/30 00:23:22;;;;;;;8.45;5.40;;;;;;;;;;5217637;28;20029;-85
2022/05/30 00:25:53;;;;;;;5.13;4.55;;;;;;;;;;5233737;28;20028;-82
2022/05/30 00:28:23;;;;;;;5.05;4.70;;;;;;;;;;5232689;28;20371;-82
2022/05/30 00:30:54;;;;;;;9.10;4.57;;;;;;;;;;5215613;28;20028;-82
2022/05/30 00:33:24;;;;;;;4.78;4.43;;;;;;;;;;5215328;28;20013;-82
2022/05/30 00:35:54;;;;;;;5.72;5.18;;;;;;;;;;5233243;28;20475;-82
2022/05/30 00:38:25;;;;;;;4.90;4.47;;;;;;;;;;5232658;28;20047;-82
2022/05/30 00:40:55;;;;;;;4.90;4.60;;;;;;;;;;5231998;28;20036;-81
2022/05/30 00:43:28;;;;;;;4.60;3.92;;;;;;;;;;5215902;28;20025;-81
2022/05/30 00:45:59;;;;;;;5.97;5.45;;;;;;;;;;5232569;28;20024;-81
2022/05/30 00:48:31;;;;;;;5.65;5.30;;;;;;;;;;5231029;28;20052;-80
2022/05/30 00:51:04;;;;;;;5.53;4.65;;;;;;;;;;5232076;28;20021;-83
2022/05/30 00:53:34;;;;;;;8.90;5.28;;;;;;;;;;5232598;28;20013;-82
2022/05/30 00:56:06;;;;;;;7.75;5.00;;;;;;;;;;5232804;28;20024;-81
2022/05/30 00:58:40;;;;;;;6.13;5.60;;;;;;;;;;5236303;28;20394;-82
2022/05/30 01:01:11;;;;;;;9.15;5.72;;;;;;;;;;5236505;28;20024;-82
2022/05/30 01:06:37;;;;;;;5.82;5.32;;;;;;;;;;5235673;28;20032;-81
2022/05/30 01:09:09;;;;;;;5.45;5.10;;;;;;;;;;5235508;28;20017;-82
2022/05/30 01:12:06;;;;;;;18.05;7.10;;;;;;;;;;5235328;28;20044;-82
2022/05/30 01:14:38;;;;;;;7.88;5.93;;;;;;;;;;5233224;28;20113;-81
2022/05/30 01:17:14;;;;;;;5.43;5.18;;;;;;;;;;5217158;28;20067;-83
2022/05/30 01:19:45;;;;;;;7.25;6.78;;;;;;;;;;5217100;28;20028;-82
2022/05/30 01:22:41;;;;;;;6.80;6.28;;;;;;;;;;5219667;28;20111;-80
2022/05/30 01:25:29;;;;;;;7.07;6.55;;;;;;;;;;5234534;28;20078;-80
2022/05/30 01:28:08;;;;;;;6.90;5.70;;;;;;;;;;5235103;28;20013;-82
2022/05/30 01:30:40;;;;;;;7.20;5.93;;;;;;;;;;5236791;28;20028;-82
2022/05/30 01:33:10;;;;;;;6.40;5.95;;;;;;;;;;5245530;28;20458;-81
2022/05/30 01:35:41;;;;;;;6.00;5.57;;;;;;;;;;5248157;28;20037;-81
2022/05/30 01:38:11;;;;;;;6.75;6.15;;;;;;;;;;5247290;28;20032;-81
2022/05/30 01:40:41;;;;;;;6.07;5.68;;;;;;;;;;5247091;28;20009;-82
2022/05/30 01:43:15;;;;;;;5.85;5.43;;;;;;;;;;5229599;28;20035;-81
2022/05/30 01:45:45;;;;;;;6.63;6.03;;;;;;;;;;5247396;28;20021;-81
2022/05/30 01:48:15;;;;;;;7.43;6.90;;;;;;;;;;5229574;28;20122;-81
2022/05/30 01:50:47;;;;;;;7.13;6.68;;;;;;;;;;5241161;28;20025;-81
2022/05/30 01:53:17;;;;;;;7.18;6.80;;;;;;;;;;5222347;28;20028;-82
2022/05/30 01:55:47;;;;;;;7.67;7.27;;;;;;;;;;5247198;28;20064;-82
2022/05/30 01:58:17;;;;;;;7.47;6.97;;;;;;;;;;5251827;28;20288;-82
2022/05/30 02:00:48;;;;;;;8.68;7.90;;;;;;;;;;5252516;28;20255;-81
2022/05/30 02:03:18;;;;;;;8.43;7.72;;;;;;;;;;5251993;28;20009;-83
2022/05/30 02:05:48;;;;;;;8.70;7.47;;;;;;;;;;5248015;28;20024;-83
2022/05/30 02:08:21;;;;;;;8.60;7.85;;;;;;;;;;5246772;28;20017;-83
2022/05/30 02:10:51;;;;;;;7.40;6.90;;;;;;;;;;5227974;28;20080;-82
2022/05/30 02:13:21;;;;;;;9.10;8.43;;;;;;;;;;5218531;28;20044;-82
2022/05/30 02:18:40;;;;;;;11.07;9.10;;;;;;;;;;5235904;28;20025;-82
2022/05/30 02:21:11;;;;;;;7.85;7.45;;;;;;;;;;5236290;28;20017;-82
2022/05/30 02:23:41;;;;;;;7.93;7.32;;;;;;;;;;5218337;28;20048;-84
2022/05/30 02:26:12;;;;;;;10.30;7.45;;;;;;;;;;5236023;28;20371;-81
2022/05/30 02:28:42;;;;;;;8.77;8.10;;;;;;;;;;5235277;28;20021;-82
2022/05/30 02:31:12;;;;;;;7.72;7.25;;;;;;;;;;5218106;28;20017;-82
2022/05/30 02:36:41;;;;;;;8.60;7.75;;;;;;;;;;5235514;28;20036;-82
2022/05/30 02:39:11;;;;;;;9.55;8.82;;;;;;;;;;5232975;28;20032;-84
2022/05/30 02:41:42;;;;;;;8.55;7.82;;;;;;;;;;5215524;28;20083;-84
2022/05/30 02:44:13;;;;;;;7.45;7.00;;;;;;;;;;5214843;28;20533;-84
2022/05/30 02:46:44;;;;;;;9.15;8.45;;;;;;;;;;5232619;28;20017;-83
2022/05/30 02:49:15;;;;;;;8.88;8.20;;;;;;;;;;5233393;28;20168;-82
2022/05/30 02:51:46;;;;;;;9.45;8.85;;;;;;;;;;5234344;28;20035;-83
2022/05/30 02:54:16;;;;;;;12.60;8.15;;;;;;;;;;5232006;28;20012;-83
2022/05/30 02:56:48;;;;;;;7.95;7.40;;;;;;;;;;5215116;28;20025;-83
2022/05/30 02:59:19;;;;;;;8.90;7.38;;;;;;;;;;5214496;28;20080;-83
2022/05/30 03:01:49;;;;;;;6.65;6.25;;;;;;;;;;5232316;28;20506;-83
2022/05/30 03:04:20;;;;;;;8.47;8.00;;;;;;;;;;5213966;28;20024;-82
2022/05/30 03:06:50;;;;;;;10.70;8.75;;;;;;;;;;5232013;28;20291;-84
2022/05/30 03:09:20;;;;;;;9.45;8.75;;;;;;;;;;5213283;28;20017;-84
2022/05/30 03:11:51;;;;;;;10.48;9.60;;;;;;;;;;5231856;28;20017;-84
2022/05/30 03:14:21;;;;;;;10.13;8.15;;;;;;;;;;5213488;28;20501;-81
2022/05/30 03:16:51;;;;;;;8.25;7.38;;;;;;;;;;5231771;28;20025;-82
2022/05/30 03:19:22;;;;;;;15.13;9.38;;;;;;;;;;5231855;28;20118;-82
2022/05/30 03:21:52;;;;;;;11.95;8.77;;;;;;;;;;5231414;28;20032;-82
2022/05/30 03:24:23;;;;;;;8.48;7.88;;;;;;;;;;5212703;28;20033;-82
2022/05/30 03:26:53;;;;;;;11.10;7.68;;;;;;;;;;5213426;28;20471;-82
2022/05/30 03:29:24;;;;;;;10.32;9.40;;;;;;;;;;5231247;28;20437;-82
2022/05/30 03:31:54;;;;;;;8.80;8.18;;;;;;;;;;5230802;28;20044;-83
2022/05/30 03:34:24;;;;;;;8.80;8.07;;;;;;;;;;5230713;28;20045;-82
2022/05/30 03:36:55;;;;;;;9.80;9.07;;;;;;;;;;5217780;28;20402;-81
2022/05/30 03:39:25;;;;;;;16.20;11.75;;;;;;;;;;5199337;22;20037;-58
2022/05/30 03:41:56;;;;;;;11.05;9.40;;;;;;;;;;5167449;28;20025;-59
2022/05/30 03:44:26;;;;;;;9.52;8.00;;;;;;;;;;5167289;28;20022;-62
2022/05/30 03:46:56;;;;;;;11.25;8.68;;;;;;;;;;5167628;28;20026;-59
2022/05/30 03:49:26;;;;;;;9.98;9.07;;;;;;;;;;5167867;28;20022;-59
2022/05/30 03:51:58;;;;;;;11.13;9.63;;;;;;;;;;5167927;28;20044;-59
2022/05/30 03:54:29;;;;;;;10.27;9.23;;;;;;;;;;5167348;28;20029;-59
2022/05/30 03:56:59;;;;;;;10.45;9.60;;;;;;;;;;5167647;28;20022;-60
2022/05/30 03:59:29;;;;;;;10.63;8.50;;;;;;;;;;5185358;28;20362;-59
2022/05/30 04:02:00;;;;;;;14.57;8.50;;;;;;;;;;5167836;28;20021;-59
2022/05/30 04:04:30;;;;;;;12.35;10.85;;;;;;;;;;5167238;28;20018;-61
2022/05/30 04:07:00;;;;;;;10.68;9.63;;;;;;;;;;5167409;28;20409;-60
2022/05/30 04:09:30;;;;;;;9.75;9.15;;;;;;;;;;5167495;28;20501;-61
2022/05/30 04:12:01;;;;;;;10.18;9.55;;;;;;;;;;5185510;28;20359;-62
2022/05/30 04:14:31;;;;;;;9.55;8.85;;;;;;;;;;5167075;28;20014;-59
2022/05/30 04:17:02;;;;;;;8.35;7.70;;;;;;;;;;5167487;28;20049;-60
2022/05/30 04:19:32;;;;;;;9.32;8.60;;;;;;;;;;5167269;28;20082;-61
2022/05/30 04:22:03;;;;;;;9.55;8.70;;;;;;;;;;5167393;28;20492;-59
2022/05/30 04:24:33;;;;;;;9.38;8.43;;;;;;;;;;5167033;28;20034;-58
2022/05/30 04:27:03;;;;;;;10.68;9.45;;;;;;;;;;5167245;28;20022;-61
2022/05/30 04:29:34;;;;;;;8.65;8.05;;;;;;;;;;5156306;28;20058;-61
2022/05/30 04:32:05;;;;;;;11.68;7.97;;;;;;;;;;5147331;28;20394;-60
2022/05/30 04:34:36;;;;;;;12.23;9.35;;;;;;;;;;5150002;28;20018;-61
2022/05/30 04:37:06;;;;;;;8.93;8.23;;;;;;;;;;5150677;28;20028;-60
2022/05/30 04:39:37;;;;;;;9.85;8.65;;;;;;;;;;5154194;28;20038;-59
2022/05/30 04:42:07;;;;;;;9.68;8.73;;;;;;;;;;5151141;28;20030;-61
2022/05/30 04:44:37;;;;;;;10.45;9.27;;;;;;;;;;5168150;28;20445;-59
2022/05/30 04:47:11;;;;;;;16.17;9.05;;;;;;;;;;5151630;28;20029;-60
2022/05/30 04:49:41;;;;;;;7.88;7.18;;;;;;;;;;5146370;28;20029;-60
2022/05/30 04:52:11;;;;;;;9.55;8.85;;;;;;;;;;5151079;28;20022;-61
2022/05/30 04:54:42;;;;;;;8.82;8.20;;;;;;;;;;5167650;28;20053;-61
2022/05/30 04:57:12;;;;;;;8.30;7.70;;;;;;;;;;5155556;28;20019;-61
2022/05/30 04:59:42;;;;;;;12.90;9.23;;;;;;;;;;5129980;28;20027;-61
2022/05/30 05:02:14;;;;;;;15.98;9.65;;;;;;;;;;5147561;28;20534;-58
2022/05/30 05:04:45;;;;;;;13.20;8.88;;;;;;;;;;5129809;28;20019;-61
2022/05/30 05:07:15;;;;;;;10.50;9.70;;;;;;;;;;5130193;28;20038;-58
2022/05/30 05:09:55;;;;;;;10.25;9.25;;;;;;;;;;5130370;28;20051;-59
2022/05/30 05:12:25;;;;;;;14.25;9.88;;;;;;;;;;5130014;28;20081;-61
2022/05/30 05:14:55;;;;;;;8.90;7.72;;;;;;;;;;5147256;28;20022;-61
2022/05/30 05:17:26;;;;;;;8.00;7.30;;;;;;;;;;5129291;28;20037;-59
2022/05/30 05:19:56;;;;;;;11.43;7.68;;;;;;;;;;5130329;28;20023;-59
2022/05/30 05:22:26;;;;;;;11.32;7.05;;;;;;;;;;5130431;28;20023;-63
2022/05/30 05:24:56;;;;;;;10.38;8.30;;;;;;;;;;5129094;28;20159;-62
2022/05/30 05:27:27;;;;;;;9.52;8.00;;;;;;;;;;5145829;28;20019;-60
2022/05/30 05:29:57;;;;;;;8.20;7.57;;;;;;;;;;5129791;28;20106;-59
2022/05/30 05:32:27;;;;;;;5.97;5.65;;;;;;;;;;5145628;28;20360;-59
2022/05/30 05:34:58;;;;;;;8.35;7.57;;;;;;;;;;5147023;28;20015;-59
2022/05/30 05:37:28;;;;;;;6.88;6.32;;;;;;;;;;5129732;28;20554;-58
2022/05/30 05:39:58;;;;;;;6.50;5.82;;;;;;;;;;5129893;28;20037;-57
2022/05/30 05:42:29;;;;;;;11.02;8.50;;;;;;;;;;5129346;28;20031;-57
2022/05/30 05:44:59;;;;;;;6.63;6.13;;;;;;;;;;5129800;28;20388;-58
2022/05/30 05:47:29;;;;;;;7.60;5.88;;;;;;;;;;5130298;28;20110;-59
2022/05/30 05:50:00;;;;;;;4.65;3.83;;;;;;;;;;5130122;28;20391;-62
2022/05/30 05:52:31;;;;;;;6.38;5.80;;;;;;;;;;5147938;28;20026;-60
2022/05/30 05:55:02;;;;;;;4.50;4.10;;;;;;;;;;5129248;28;20019;-58
2022/05/30 05:57:32;;;;;;;9.50;5.18;;;;;;;;;;5129972;28;20117;-60
2022/05/30 06:00:04;;;;;;;4.78;4.43;;;;;;;;;;5147363;28;20027;-58
2022/05/30 06:02:35;;;;;;;10.25;5.07;;;;;;;;;;5130002;28;20054;-61
2022/05/30 06:05:05;;;;;;;7.70;5.15;;;;;;;;;;5129436;28;20031;-59
2022/05/30 06:07:37;;;;;;;5.50;5.10;;;;;;;;;;5129668;28;20026;-57
2022/05/30 06:10:09;;;;;;;5.28;4.82;;;;;;;;;;5158650;28;20017;-56
2022/05/30 06:12:42;;;;;;;7.47;6.40;;;;;;;;;;5154705;28;20022;-57
2022/05/30 06:15:14;;;;;;;6.97;4.75;;;;;;;;;;5148850;28;20041;-60
2022/05/30 06:17:45;;;;;;;12.38;4.90;;;;;;;;;;5149595;28;20102;-59
2022/05/30 06:20:16;;;;;;;5.68;4.22;;;;;;;;;;5149668;28;20109;-58
2022/05/30 06:22:46;;;;;;;4.38;3.70;;;;;;;;;;5167167;28;20049;-61
2022/05/30 06:25:16;;;;;;;4.72;4.25;;;;;;;;;;5148779;28;20066;-61
2022/05/30 06:27:47;;;;;;;4.75;3.83;;;;;;;;;;5149151;28;20072;-62
2022/05/30 06:30:17;;;;;;;3.50;2.95;;;;;;;;;;5166736;28;20217;-61
2022/05/30 06:32:47;;;;;;;5.82;2.90;;;;;;;;;;5148964;28;20030;-61
2022/05/30 06:35:18;;;;;;;3.47;3.20;;;;;;;;;;5149082;28;20058;-59
2022/05/30 06:37:48;;;;;;;7.85;3.30;;;;;;;;;;5148964;28;20073;-59
2022/05/30 06:40:19;;;;;;;5.85;2.90;;;;;;;;;;5148930;28;20029;-61
2022/05/30 06:42:49;;;;;;;4.13;2.78;;;;;;;;;;5149117;28;20029;-61
2022/05/30 06:45:19;;;;;;;7.30;4.22;;;;;;;;;;5148924;28;20399;-61
2022/05/30 06:47:49;;;;;;;2.92;2.75;;;;;;;;;;5148881;28;20402;-59
2022/05/30 06:50:21;;;;;;;7.43;3.38;;;;;;;;;;5149577;28;20419;-60
2022/05/30 06:52:51;;;;;;;7.43;3.08;;;;;;;;;;5166491;28;20019;-62
2022/05/30 06:55:21;;;;;;;2.25;2.15;;;;;;;;;;5147636;28;20101;-61
2022/05/30 07:00:42;;;;;;;1.98;1.88;;;;;;;;;;5166323;28;20088;-61
2022/05/30 07:03:16;;;;;;;2.92;2.58;;;;;;;;;;5148469;28;20022;-62
2022/05/30 07:05:46;;;;;;;7.13;3.38;;;;;;;;;;5148593;28;20343;-60
2022/05/30 07:08:16;;;;;;;2.78;2.67;;;;;;;;;;5148844;28;20025;-61
2022/05/30 07:10:46;;;;;;;4.97;2.15;;;;;;;;;;5148404;28;20395;-63
2022/05/30 07:13:17;;;;;;;2.78;2.15;;;;;;;;;;5148636;28;20022;-60
2022/05/30 07:15:48;;;;;;;8.38;2.25;;;;;;;;;;5148072;28;20022;-61
2022/05/30 07:18:19;;;;;;;3.13;2.95;;;;;;;;;;5148492;28;20025;-63
2022/05/30 07:20:56;;;;;;;2.38;2.25;;;;;;;;;;5148268;28;20113;-62
2022/05/30 07:23:27;;;;;;;4.03;1.83;;;;;;;;;;5147957;28;20109;-61
2022/05/30 07:25:59;;;;;;;2.08;1.55;;;;;;;;;;5148185;28;20113;-61
2022/05/30 07:28:29;;;;;;;1.70;1.60;;;;;;;;;;5147962;28;20033;-60
2022/05/30 07:31:04;;;;;;;4.50;1.88;;;;;;;;;;5148045;28;20026;-61
2022/05/30 07:33:35;;;;;;;2.05;1.80;;;;;;;;;;5148077;28;20022;-62
2022/05/30 07:36:16;;;;;;;1.60;1.50;;;;;;;;;;5148063;28;20077;-61
2022/05/30 07:38:47;;;;;;;1.38;1.27;;;;;;;;;;5147761;28;20034;-61
2022/05/30 07:41:17;;;;;;;1.23;1.23;;;;;;;;;;5148104;28;20036;-62
2022/05/30 07:43:48;;;;;;;1.52;1.20;;;;;;;;;;5147872;28;20081;-61
2022/05/30 07:46:19;;;;;;;3.17;1.88;;;;;;;;;;5147591;28;20025;-62
2022/05/30 07:48:49;;;;;;;1.35;0.88;;;;;;;;;;5147795;28;20498;-62
2022/05/30 07:51:19;;;;;;;2.60;1.80;;;;;;;;;;5148049;28;20085;-62
2022/05/30 07:53:50;;;;;;;3.53;2.15;;;;;;;;;;5147600;28;20502;-62
2022/05/30 07:56:20;;;;;;;1.63;1.50;;;;;;;;;;5147645;28;20483;-60
2022/05/30 07:58:50;;;;;;;3.20;2.15;;;;;;;;;;5147504;28;20030;-62
2022/05/30 08:01:21;;;;;;;1.20;1.20;;;;;;;;;;5147830;28;20030;-61
2022/05/30 08:03:52;;;;;;;1.77;1.67;;;;;;;;;;5147411;28;20011;-62
2022/05/30 08:06:26;;;;;;;6.70;1.70;;;;;;;;;;5150126;28;20028;-63
2022/05/30 08:08:57;;;;;;;1.48;1.25;;;;;;;;;;5169121;28;20014;-63
2022/05/30 08:11:27;;;;;;;1.38;1.38;;;;;;;;;;5151846;28;20024;-64
2022/05/30 08:13:57;;;;;;;4.00;1.90;;;;;;;;;;5169291;28;20018;-63
2022/05/30 08:16:28;;;;;;;2.10;2.00;;;;;;;;;;5151621;28;20014;-63
2022/05/30 08:18:58;;;;;;;2.55;2.25;;;;;;;;;;5149327;28;20101;-64
2022/05/30 08:21:28;;;;;;;2.35;2.20;;;;;;;;;;5152041;28;20025;-63
2022/05/30 08:23:58;;;;;;;1.98;1.88;;;;;;;;;;5151692;28;20022;-63
2022/05/30 08:26:29;;;;;;;2.28;1.63;;;;;;;;;;5151649;28;20022;-63
2022/05/30 08:28:59;;;;;;;2.78;2.15;;;;;;;;;;5151732;28;20018;-62
2022/05/30 08:31:29;;;;;;;2.28;2.08;;;;;;;;;;5151737;28;20054;-63
2022/05/30 08:34:00;;;;;;;2.22;2.03;;;;;;;;;;5151262;28;20113;-63
2022/05/30 08:36:30;;;;;;;4.60;1.45;;;;;;;;;;5151532;28;20487;-63
2022/05/30 08:41:49;;;;;;;2.17;2.07;;;;;;;;;;5169069;28;20045;-61
2022/05/30 08:44:20;;;;;;;6.03;2.10;;;;;;;;;;5151215;28;20035;-63
2022/05/30 08:47:00;;;;;;;1.65;1.48;;;;;;;;;;5151361;28;20018;-63
2022/05/30 08:49:34;;;;;;;2.92;1.60;;;;;;;;;;5151436;28;20029;-63
2022/05/30 08:52:11;;;;;;;2.17;1.65;;;;;;;;;;5151044;28;20022;-62
2022/05/30 08:54:41;;;;;;;2.25;2.05;;;;;;;;;;5150890;28;20018;-62
2022/05/30 08:57:41;;;;;;;3.42;2.72;;;;;;;;;;5150792;28;20639;-63
2022/05/30 09:00:11;;;;;;;;;;;;;;;;;;5134959;28;20038;-64
2022/05/30 09:02:45;;;;;;;2.00;1.90;;;;;;;;;;5150960;28;19905;-63
2022/05/30 09:05:35;;;;;;;4.63;2.50;;;;;;;;;;5150434;28;20441;-64
2022/05/30 09:08:07;;;;;;;2.40;2.20;;;;;;;;;;5168282;28;20026;-64
2022/05/30 09:10:57;;;;;;;2.10;2.00;;;;;;;;;;5150865;28;20061;-62
2022/05/30 09:13:34;;;;;;;2.17;2.08;;;;;;;;;;5150413;28;20025;-61
2022/05/30 09:16:11;;;;;;;3.15;2.63;;;;;;;;;;5150504;28;20014;-61
2022/05/30 09:18:48;;;;;;;2.25;2.05;;;;;;;;;;5167165;28;20371;-61
2022/05/30 09:21:20;;;;;;;4.25;2.53;;;;;;;;;;5150503;28;20104;-62
2022/05/30 09:23:50;;;;;;;2.83;2.60;;;;;;;;;;5150479;28;20029;-62
2022/05/30 09:26:28;;;;;;;7.75;3.67;;;;;;;;;;5150673;28;20087;-62
2022/05/30 09:29:27;;;;;;;2.70;2.53;;;;;;;;;;5150292;28;20026;-62
2022/05/30 09:32:01;;;;;;;5.82;2.78;;;;;;;;;;5147823;28;20030;-61
2022/05/30 09:34:38;;;;;;;4.53;3.08;;;;;;;;;;5148824;28;20022;-62
2022/05/30 09:37:15;;;;;;;2.28;2.17;;;;;;;;;;5150054;28;20027;-61
2022/05/30 09:39:47;;;;;;;3.63;3.38;;;;;;;;;;5194701;22;20037;-64
2022/05/30 09:42:37;;;;;;;2.47;2.38;;;;;;;;;;5189358;28;20028;-63
2022/05/30 09:45:09;;;;;;;3.38;3.08;;;;;;;;;;5189259;28;20066;-61
2022/05/30 09:47:58;;;;;;;2.83;2.72;;;;;;;;;;5189313;28;20061;-64
2022/05/30 09:50:29;;;;;;;3.95;2.25;;;;;;;;;;5188991;28;20034;-64
2022/05/30 09:52:59;;;;;;;3.67;2.10;;;;;;;;;;5189346;28;20018;-64
2022/05/30 09:55:37;;;;;;;2.67;2.47;;;;;;;;;;5206957;28;20539;-63
2022/05/30 09:58:08;;;;;;;10.00;3.30;;;;;;;;;;5189240;28;20397;-64
2022/05/30 10:00:47;;;;;;;2.42;2.33;;;;;;;;;;5189135;28;20026;-62
2022/05/30 10:03:23;;;;;;;2.42;2.33;;;;;;;;;;5188908;28;20072;-62
2022/05/30 10:06:10;;;;;;;4.28;2.53;;;;;;;;;;5188943;28;20052;-62
2022/05/30 10:08:41;;;;;;;3.05;2.88;;;;;;;;;;5188945;28;20142;-60
2022/05/30 10:11:32;;;;;;;2.60;2.45;;;;;;;;;;5188972;28;20045;-63
2022/05/30 10:14:20;;;;;;;3.55;2.47;;;;;;;;;;5188615;28;20024;-62
2022/05/30 10:16:51;;;;;;;3.90;3.60;;;;;;;;;;5188842;28;20033;-63
2022/05/30 10:19:26;;;;;;;2.15;2.00;;;;;;;;;;5188743;28;20027;-63
2022/05/30 10:28:14;;;;;;;7.57;2.53;;;;;;;;;;5206456;28;20026;-64
2022/05/30 10:30:52;;;;;;;2.80;2.60;;;;;;;;;;5188552;28;20026;-63
2022/05/30 10:33:37;;;;;;;2.80;2.63;;;;;;;;;;5188266;28;20113;-63
2022/05/30 10:36:07;;;;;;;2.95;2.65;;;;;;;;;;5188556;28;20017;-63
2022/05/30 10:38:40;;;;;;;7.18;4.57;;;;;;;;;;5188708;28;20025;-62
2022/05/30 10:41:21;;;;;;;4.85;3.22;;;;;;;;;;5206285;28;20025;-65
2022/05/30 10:44:06;;;;;;;6.75;5.10;;;;;;;;;;5188483;28;20436;-63
2022/05/30 10:46:36;;;;;;;4.53;2.90;;;;;;;;;;5189209;28;20041;-61
2022/05/30 10:49:09;;;;;;;3.00;2.78;;;;;;;;;;5206220;28;20413;-64
2022/05/30 10:51:51;;;;;;;5.13;3.47;;;;;;;;;;5188261;28;20049;-62
2022/05/30 10:54:29;;;;;;;2.72;2.30;;;;;;;;;;5187882;28;20099;-64
2022/05/30 10:57:20;;;;;;;5.93;3.33;;;;;;;;;;5205893;28;20025;-61
2022/05/30 11:00:09;;;;;;;2.40;2.25;;;;;;;;;;5205923;28;20437;-62
2022/05/30 11:02:43;;;;;;;2.53;2.33;;;;;;;;;;5188035;28;20029;-63
2022/05/30 11:05:17;;;;;;;9.00;3.92;;;;;;;;;;5205260;28;20033;-63
2022/05/30 11:07:54;;;;;;;5.88;3.55;;;;;;;;;;5187663;28;20025;-60
2022/05/30 11:10:32;;;;;;;3.70;2.90;;;;;;;;;;5187755;28;20018;-60
2022/05/30 11:13:02;;;;;;;2.95;2.65;;;;;;;;;;5187726;28;20489;-61
2022/05/30 11:15:52;;;;;;;2.83;2.67;;;;;;;;;;5186973;28;20025;-64
2022/05/30 11:18:28;;;;;;;3.05;2.75;;;;;;;;;;5186696;28;20585;-63
2022/05/30 11:21:10;;;;;;;3.25;3.03;;;;;;;;;;5187788;28;20021;-59
2022/05/30 11:23:42;;;;;;;5.18;2.35;;;;;;;;;;5187489;28;20115;-60
2022/05/30 11:26:31;;;;;;;11.60;3.05;;;;;;;;;;5187574;28;20029;-59
2022/05/30 11:29:20;;;;;;;3.00;2.80;;;;;;;;;;5187438;28;20026;-62
2022/05/30 11:32:09;;;;;;;3.53;3.15;;;;;;;;;;5187473;28;20029;-62
2022/05/30 11:34:46;;;;;;;4.63;2.30;;;;;;;;;;5187182;28;20179;-62
2022/05/30 11:37:25;;;;;;;2.83;2.63;;;;;;;;;;5187584;28;20074;-59
2022/05/30 11:40:14;;;;;;;3.22;2.90;;;;;;;;;;5204824;28;20444;-59
2022/05/30 11:42:46;;;;;;;8.80;3.40;;;;;;;;;;5187560;28;20468;-59
2022/05/30 11:45:31;;;;;;;2.28;2.17;;;;;;;;;;5187021;28;20018;-63
2022/05/30 11:48:21;;;;;;;2.55;2.45;;;;;;;;;;5187326;28;20186;-63
2022/05/30 11:50:56;;;;;;;3.40;3.20;;;;;;;;;;5187799;28;20071;-62
2022/05/30 11:53:32;;;;;;;4.50;2.92;;;;;;;;;;5188009;28;20385;-63
2022/05/30 11:56:14;;;;;;;2.55;2.38;;;;;;;;;;5189728;28;20497;-62
2022/05/30 11:58:51;;;;;;;2.63;2.53;;;;;;;;;;5195185;28;20044;-63
2022/05/30 12:01:23;;;;;;;2.50;2.30;;;;;;;;;;5188308;28;20116;-62
2022/05/30 12:03:54;;;;;;;2.42;2.33;;;;;;;;;;5205180;28;20493;-63
2022/05/30 12:06:33;;;;;;;5.32;2.20;;;;;;;;;;5187888;28;20080;-62
2022/05/30 12:09:12;;;;;;;4.05;2.33;;;;;;;;;;5187728;28;20049;-63
2022/05/30 12:11:52;;;;;;;2.22;2.08;;;;;;;;;;5187916;28;20052;-62
2022/05/30 12:14:22;;;;;;;;;;;;;;;;;;5187547;28;20026;-60
2022/05/30 12:17:21;;;;;;;4.13;3.72;;;;;;;;;;5186281;28;19912;-62
2022/05/30 12:25:51;;;;;;;3.05;2.95;;;;;;;;;;5205467;28;20409;-61
2022/05/30 12:28:28;;;;;;;3.72;3.42;;;;;;;;;;5187416;28;20013;-62
2022/05/30 12:31:00;;;;;;;5.90;3.08;;;;;;;;;;5187033;28;20033;-60
2022/05/30 12:33:33;;;;;;;3.97;3.50;;;;;;;;;;5186851;28;20022;-62
2022/05/30 12:36:10;;;;;;;2.40;2.20;;;;;;;;;;5186817;28;20028;-62
2022/05/30 12:38:52;;;;;;;2.90;2.70;;;;;;;;;;5186737;28;20056;-62
2022/05/30 12:41:28;;;;;;;4.30;2.90;;;;;;;;;;5186590;28;20025;-62
2022/05/30 12:43:59;;;;;;;3.10;2.90;;;;;;;;;;5186685;28;20499;-62
2022/05/30 12:46:30;;;;;;;2.97;2.78;;;;;;;;;;5186777;28;20087;-64
2022/05/30 12:49:05;;;;;;;10.23;3.90;;;;;;;;;;5186623;28;20017;-62
2022/05/30 12:51:37;;;;;;;2.35;2.20;;;;;;;;;;5186604;28;20374;-62
2022/05/30 12:54:07;;;;;;;3.95;2.92;;;;;;;;;;5189504;28;20014;-60
2022/05/30 12:56:38;;;;;;;6.10;2.97;;;;;;;;;;5190348;28;20025;-61
2022/05/30 12:59:11;;;;;;;3.28;3.10;;;;;;;;;;5190430;28;20018;-63
2022/05/30 13:01:44;;;;;;;2.28;2.17;;;;;;;;;;5190200;28;20460;-62
2022/05/30 13:04:27;;;;;;;7.20;3.15;;;;;;;;;;5189757;28;20096;-63
2022/05/30 13:06:57;;;;;;;1.80;1.70;;;;;;;;;;5190093;28;20124;-63
2022/05/30 13:09:30;;;;;;;4.28;2.55;;;;;;;;;;5188880;28;20112;-63
2022/05/30 13:12:03;;;;;;;5.05;3.03;;;;;;;;;;5190078;28;20032;-63
2022/05/30 13:14:37;;;;;;;4.25;2.78;;;;;;;;;;5189521;28;20018;-63
2022/05/30 13:17:16;;;;;;;2.97;2.78;;;;;;;;;;5189890;28;20060;-65
2022/05/30 13:20:07;;;;;;;3.47;3.15;;;;;;;;;;5189594;28;20033;-63
2022/05/30 13:22:48;;;;;;;1.83;1.80;;;;;;;;;;5188437;28;20029;-63
2022/05/30 13:25:25;;;;;;;3.50;3.28;;;;;;;;;;5188510;28;20029;-64
2022/05/30 13:28:02;;;;;;;2.63;2.50;;;;;;;;;;5189353;28;20370;-64
2022/05/30 13:30:33;;;;;;;3.08;2.60;;;;;;;;;;5189450;28;20083;-63
2022/05/30 13:33:29;;;;;;;3.38;3.15;;;;;;;;;;5189486;28;20481;-63
2022/05/30 13:36:01;;;;;;;3.05;2.85;;;;;;;;;;5184319;28;20160;-62
2022/05/30 13:38:39;;;;;;;2.60;2.47;;;;;;;;;;5189146;28;20451;-63
2022/05/30 13:41:10;;;;;;;4.88;3.58;;;;;;;;;;5189008;28;20080;-63
2022/05/30 13:43:40;;;;;;;6.25;3.50;;;;;;;;;;5188799;28;20025;-63
2022/05/30 13:46:11;;;;;;;2.67;2.50;;;;;;;;;;5188841;28;20374;-65
2022/05/30 13:48:41;;;;;;;3.08;2.42;;;;;;;;;;5206586;28;20063;-63
2022/05/30 13:51:12;;;;;;;3.22;2.25;;;;;;;;;;5206633;28;20021;-63
2022/05/30 13:53:47;;;;;;;4.13;3.83;;;;;;;;;;5206141;28;20024;-63
2022/05/30 13:56:17;;;;;;;4.03;2.60;;;;;;;;;;5187761;28;20022;-63
2022/05/30 13:58:49;;;;;;;4.53;2.75;;;;;;;;;;5188520;28;20045;-64
2022/05/30 14:01:22;;;;;;;3.28;3.03;;;;;;;;;;5188690;28;20121;-65
2022/05/30 14:03:57;;;;;;;4.38;3.38;;;;;;;;;;5206140;28;20473;-62
2022/05/30 14:06:31;;;;;;;3.00;2.80;;;;;;;;;;5189204;28;20025;-61
2022/05/30 14:09:03;;;;;;;5.47;3.50;;;;;;;;;;5188693;28;20018;-61
2022/05/30 14:11:38;;;;;;;3.60;3.03;;;;;;;;;;5188852;28;20025;-60
2022/05/30 14:14:09;;;;;;;3.95;3.67;;;;;;;;;;5188371;28;20024;-62
2022/05/30 14:16:54;;;;;;;2.45;2.33;;;;;;;;;;5188470;28;20025;-61
2022/05/30 14:19:29;;;;;;;3.15;2.80;;;;;;;;;;5188462;28;20032;-64
2022/05/30 14:22:07;;;;;;;8.25;2.78;;;;;;;;;;5188525;28;20055;-62
2022/05/30 14:24:52;;;;;;;3.75;3.47;;;;;;;;;;5188244;28;20025;-61
2022/05/30 14:27:23;;;;;;;5.43;3.35;;;;;;;;;;5188201;28;20021;-61
2022/05/30 14:29:57;;;;;;;3.22;3.03;;;;;;;;;;5186919;28;20013;-65
2022/05/30 14:32:30;;;;;;;4.32;2.72;;;;;;;;;;5187632;28;20060;-65
2022/05/30 14:35:02;;;;;;;3.05;2.85;;;;;;;;;;5187612;28;20017;-62
2022/05/30 14:37:32;;;;;;;3.53;3.33;;;;;;;;;;5187954;28;20028;-62
2022/05/30 14:40:09;;;;;;;3.05;2.85;;;;;;;;;;5187717;28;20485;-62
2022/05/30 14:42:52;;;;;;;5.65;3.13;;;;;;;;;;5205628;28;20029;-62
2022/05/30 14:45:41;;;;;;;3.60;3.00;;;;;;;;;;5187282;28;20037;-62
2022/05/30 14:48:15;;;;;;;2.47;2.35;;;;;;;;;;5186101;28;20021;-59
2022/05/30 14:50:50;;;;;;;3.10;3.00;;;;;;;;;;5187136;28;20493;-60
2022/05/30 14:53:23;;;;;;;7.60;3.63;;;;;;;;;;5186441;28;20021;-64
2022/05/30 14:55:56;;;;;;;6.70;3.92;;;;;;;;;;5187390;28;20493;-61
2022/05/30 14:58:46;;;;;;;2.40;2.20;;;;;;;;;;5187206;28;20021;-61
2022/05/30 15:01:20;;;;;;;4.30;3.15;;;;;;;;;;5186597;28;20040;-61
2022/05/30 15:04:05;;;;;;;3.13;2.83;;;;;;;;;;5185466;28;20203;-61
2022/05/30 15:06:40;;;;;;;2.15;2.05;;;;;;;;;;5184389;28;20021;-65
2022/05/30 15:09:12;;;;;;;8.02;3.22;;;;;;;;;;5186997;28;20180;-64
2022/05/30 15:11:43;;;;;;;2.42;2.28;;;;;;;;;;5187093;28;20018;-61
2022/05/30 15:14:15;;;;;;;3.35;2.83;;;;;;;;;;5186969;28;20037;-61
2022/05/30 15:16:45;;;;;;;4.10;2.05;;;;;;;;;;5186675;28;20435;-61
2022/05/30 15:19:16;;;;;;;10.48;3.40;;;;;;;;;;5187220;28;20018;-65
2022/05/30 15:21:51;;;;;;;3.08;2.13;;;;;;;;;;5204453;28;20381;-63
2022/05/30 15:24:27;;;;;;;2.95;2.75;;;;;;;;;;5186412;28;20094;-59
2022/05/30 15:26:58;;;;;;;3.10;2.35;;;;;;;;;;5204716;28;20496;-61
2022/05/30 15:29:28;;;;;;;3.00;2.80;;;;;;;;;;5186617;28;20469;-64
2022/05/30 15:32:01;;;;;;;2.35;2.15;;;;;;;;;;5186830;28;20017;-62
2022/05/30 15:34:32;;;;;;;2.80;2.30;;;;;;;;;;5186367;28;20095;-61
2022/05/30 15:37:03;;;;;;;3.42;3.13;;;;;;;;;;5186727;28;20063;-60
2022/05/30 15:39:33;;;;;;;3.00;2.83;;;;;;;;;;5186008;28;20029;-62
2022/05/30 15:42:05;;;;;;;3.10;2.90;;;;;;;;;;5186456;28;20018;-62
2022/05/30 15:44:39;;;;;;;3.25;2.60;;;;;;;;;;5186620;28;20024;-66
2022/05/30 15:47:11;;;;;;;3.55;3.35;;;;;;;;;;5186401;28;20164;-61